Time;durP1;ratioP1;P1;durP2;ratioP2;P2;SDS_P1;SDS_P2;PMS_P1;PMS_P2;Temp;Humidity;BMP_temperature;BMP_pressure;BME280_temperature;BME280_humidity;BME280_pressure;Samples;Min_cycle;Max_cycle;Signal;HPM_P1;HPM_P2
2023/08/27 00:01:50;;;;;;;6.90;6.20;;;19.00;99.90;;;;;;5033753;28;20424;-66
2023/08/27 00:04:16;;;;;;;6.73;6.33;;;19.00;99.90;;;;;;5030327;28;20468;-67
2023/08/27 00:06:42;;;;;;;7.37;6.70;;;19.00;99.90;;;;;;5033248;28;20772;-61
2023/08/27 00:09:07;;;;;;;7.20;6.60;;;18.90;99.90;;;;;;5032271;28;20220;-61
2023/08/27 00:11:33;;;;;;;6.90;6.33;;;18.90;99.90;;;;;;5033476;28;20182;-62
2023/08/27 00:13:59;;;;;;;6.43;5.87;;;18.90;99.90;;;;;;5031306;28;20182;-62
2023/08/27 00:16:24;;;;;;;6.57;6.10;;;18.90;99.90;;;;;;5032769;28;20198;-61
2023/08/27 00:18:50;;;;;;;6.50;6.00;;;18.80;99.90;;;;;;5033513;28;20217;-61
2023/08/27 00:21:16;;;;;;;7.63;7.00;;;18.50;99.90;;;;;;5032646;28;20186;-61
2023/08/27 00:23:42;;;;;;;6.27;5.87;;;18.10;99.90;;;;;;5024441;28;20653;-61
2023/08/27 00:26:07;;;;;;;6.60;6.10;;;18.00;99.90;;;;;;5015355;28;20201;-61
2023/08/27 00:28:33;;;;;;;7.47;6.97;;;17.90;99.90;;;;;;5032010;28;20254;-61
2023/08/27 00:31:05;;;;;;;7.47;6.97;;;17.70;99.90;;;;;;5032739;28;20178;-61
2023/08/27 00:33:31;;;;;;;7.10;6.60;;;17.90;99.90;;;;;;5030470;28;20166;-62
2023/08/27 00:35:57;;;;;;;7.03;6.53;;;18.00;99.90;;;;;;5032359;28;20512;-61
2023/08/27 00:38:23;;;;;;;6.20;5.80;;;18.10;99.90;;;;;;5032147;28;20186;-62
2023/08/27 00:40:48;;;;;;;6.83;6.43;;;18.20;99.90;;;;;;5032636;28;20261;-62
2023/08/27 00:43:14;;;;;;;7.40;6.90;;;18.20;99.90;;;;;;5030454;28;20405;-61
2023/08/27 00:45:41;;;;;;;6.10;5.73;;;18.30;99.90;;;;;;5032320;28;20546;-62
2023/08/27 00:48:06;;;;;;;5.80;5.50;;;18.30;99.90;;;;;;5032117;28;20183;-62
2023/08/27 00:50:32;;;;;;;5.80;5.50;;;18.20;99.90;;;;;;5032943;28;20424;-62
2023/08/27 00:52:59;;;;;;;6.27;5.87;;;18.20;99.90;;;;;;5030143;28;20186;-61
2023/08/27 00:55:25;;;;;;;5.97;5.47;;;18.20;99.90;;;;;;5030590;28;20433;-61
2023/08/27 00:57:51;;;;;;;6.30;5.80;;;18.30;99.90;;;;;;5032704;28;20949;-61
2023/08/27 01:00:19;;;;;;;6.13;5.73;;;18.40;99.90;;;;;;5031458;28;20182;-61
2023/08/27 01:02:46;;;;;;;6.33;5.50;;;18.40;99.90;;;;;;5029942;28;20783;-61
2023/08/27 01:05:12;;;;;;;5.97;5.67;;;18.40;99.90;;;;;;5029827;28;20471;-61
2023/08/27 01:07:38;;;;;;;5.57;5.27;;;18.50;99.90;;;;;;5031398;28;20433;-61
2023/08/27 01:10:31;;;;;;;5.60;5.30;;;18.40;99.90;;;;;;5031335;28;20828;-60
2023/08/27 01:13:08;;;;;;;5.67;5.27;;;18.40;99.90;;;;;;5030197;28;20217;-62
2023/08/27 01:15:35;;;;;;;5.43;5.13;;;18.30;99.90;;;;;;5029698;28;20431;-61
2023/08/27 01:18:03;;;;;;;6.13;5.80;;;18.30;99.90;;;;;;5031362;28;20539;-61
2023/08/27 01:20:32;;;;;;;5.60;5.20;;;18.20;99.90;;;;;;5030377;28;20413;-61
2023/08/27 01:22:57;;;;;;;5.33;5.03;;;18.30;99.90;;;;;;5031223;28;20409;-61
2023/08/27 01:25:35;;;;;;;6.03;5.70;;;18.30;99.90;;;;;;5029725;28;20443;-61
2023/08/27 01:28:09;;;;;;;5.77;5.47;;;18.30;99.90;;;;;;5029432;28;20245;-61
2023/08/27 01:30:50;;;;;;;5.70;5.33;;;18.40;99.90;;;;;;5031800;28;20441;-61
2023/08/27 01:33:21;;;;;;;5.50;5.20;;;18.40;99.90;;;;;;5030422;28;20439;-61
2023/08/27 01:35:47;;;;;;;5.70;5.40;;;18.40;99.90;;;;;;5028297;28;20479;-61
2023/08/27 01:38:13;;;;;;;5.80;5.50;;;18.40;99.90;;;;;;5030587;28;20909;-61
2023/08/27 01:40:43;;;;;;;5.83;5.53;;;18.40;99.90;;;;;;5031391;28;20420;-61
2023/08/27 01:43:09;;;;;;;5.47;5.17;;;18.40;99.90;;;;;;5031189;28;20413;-61
2023/08/27 01:45:35;;;;;;;5.57;5.17;;;18.40;99.90;;;;;;5031689;28;20427;-61
2023/08/27 01:48:00;;;;;;;6.43;5.93;;;18.40;99.90;;;;;;5031790;28;20900;-61
2023/08/27 01:50:26;;;;;;;6.33;5.83;;;18.40;99.90;;;;;;5031181;28;20174;-61
2023/08/27 01:52:52;;;;;;;6.00;5.53;;;18.30;99.90;;;;;;5031670;28;20174;-61
2023/08/27 01:55:18;;;;;;;5.67;5.37;;;18.30;99.90;;;;;;5029963;28;20625;-61
2023/08/27 01:57:45;;;;;;;6.50;6.00;;;18.40;99.90;;;;;;5031515;28;20612;-61
2023/08/27 02:00:11;;;;;;;5.80;5.50;;;18.40;99.90;;;;;;5031022;28;20190;-61
2023/08/27 02:02:37;;;;;;;6.17;5.77;;;18.30;99.90;;;;;;5031449;28;20421;-61
2023/08/27 02:05:06;;;;;;;5.60;5.20;;;18.30;99.90;;;;;;5031500;28;20457;-60
2023/08/27 02:07:34;;;;;;;6.43;6.03;;;18.30;99.90;;;;;;5031081;28;20523;-61
2023/08/27 02:10:00;;;;;;;5.53;5.23;;;18.30;99.90;;;;;;5030668;28;20421;-61
2023/08/27 02:12:26;;;;;;;5.53;5.23;;;18.30;99.90;;;;;;5030654;28;20456;-61
2023/08/27 02:14:52;;;;;;;6.40;6.00;;;18.30;99.90;;;;;;5031835;28;20175;-62
2023/08/27 02:17:18;;;;;;;6.53;5.90;;;18.30;99.90;;;;;;5030525;28;20448;-61
2023/08/27 02:19:43;;;;;;;6.00;5.67;;;18.30;99.90;;;;;;5035125;28;20171;-61
2023/08/27 02:22:09;;;;;;;6.17;5.73;;;18.30;99.90;;;;;;5030346;28;20202;-61
2023/08/27 02:24:35;;;;;;;6.23;5.83;;;18.30;99.90;;;;;;5022046;28;20253;-61
2023/08/27 02:27:01;;;;;;;6.40;5.87;;;18.30;99.90;;;;;;5034367;28;20177;-61
2023/08/27 02:29:26;;;;;;;6.33;5.93;;;18.30;99.90;;;;;;5034402;28;20174;-61
2023/08/27 02:31:52;;;;;;;7.63;5.37;;;18.30;99.90;;;;;;5035053;28;20253;-61
2023/08/27 02:34:19;;;;;;;6.33;5.90;;;18.30;99.90;;;;;;5034776;28;20178;-61
2023/08/27 02:36:45;;;;;;;5.93;5.60;;;18.30;99.90;;;;;;5034307;28;20646;-61
2023/08/27 02:39:11;;;;;;;6.23;5.83;;;18.30;99.90;;;;;;5033772;28;20516;-60
2023/08/27 02:41:37;;;;;;;5.90;5.50;;;18.30;99.90;;;;;;5034378;28;20529;-61
2023/08/27 02:44:03;;;;;;;6.40;5.53;;;18.30;99.90;;;;;;5034891;28;20406;-60
2023/08/27 02:46:29;;;;;;;5.63;5.13;;;18.30;99.90;;;;;;5033987;28;20483;-61
2023/08/27 02:48:55;;;;;;;6.60;6.20;;;18.30;99.90;;;;;;5034799;28;20179;-61
2023/08/27 02:51:21;;;;;;;6.30;5.90;;;18.30;99.90;;;;;;5033284;28;20213;-61
2023/08/27 02:53:50;;;;;;;6.90;6.50;;;18.30;99.90;;;;;;5034107;28;20178;-62
2023/08/27 02:56:17;;;;;;;6.60;6.13;;;18.30;99.90;;;;;;5033025;28;20944;-61
2023/08/27 02:58:43;;;;;;;6.20;5.80;;;18.30;99.90;;;;;;5034129;28;20444;-61
2023/08/27 03:01:09;;;;;;;6.40;6.00;;;18.30;99.90;;;;;;5033516;28;20460;-60
2023/08/27 03:03:35;;;;;;;6.23;5.93;;;18.30;99.90;;;;;;5033994;28;20449;-61
2023/08/27 03:06:01;;;;;;;6.50;6.10;;;18.30;99.90;;;;;;5033679;28;20970;-61
2023/08/27 03:08:30;;;;;;;6.07;5.73;;;18.30;99.90;;;;;;5033309;28;20917;-62
2023/08/27 03:10:55;;;;;;;6.20;5.90;;;18.20;99.90;;;;;;5033863;28;20472;-61
2023/08/27 03:13:21;;;;;;;6.47;6.07;;;18.20;99.90;;;;;;5033908;28;20401;-61
2023/08/27 03:15:47;;;;;;;6.20;5.80;;;18.20;99.90;;;;;;5033259;28;20626;-62
2023/08/27 03:18:13;;;;;;;6.30;5.67;;;18.20;99.90;;;;;;5033077;28;20194;-61
2023/08/27 03:20:38;;;;;;;6.33;5.93;;;18.20;99.90;;;;;;5033903;28;20194;-61
2023/08/27 03:23:04;;;;;;;6.30;5.90;;;18.10;99.90;;;;;;5034093;28;20166;-60
2023/08/27 03:25:30;;;;;;;6.53;6.17;;;18.10;99.90;;;;;;5032708;28;20178;-61
2023/08/27 03:27:55;;;;;;;7.17;6.57;;;18.10;99.90;;;;;;5033472;28;20672;-61
2023/08/27 03:30:21;;;;;;;5.63;5.33;;;18.10;99.90;;;;;;5032257;28;20178;-61
2023/08/27 03:32:47;;;;;;;6.60;6.20;;;18.10;99.90;;;;;;5034039;28;20593;-61
2023/08/27 03:35:12;;;;;;;6.43;5.97;;;18.10;99.90;;;;;;5032875;28;20175;-61
2023/08/27 03:37:38;;;;;;;7.10;6.57;;;18.10;99.90;;;;;;5033811;28;20580;-61
2023/08/27 03:40:04;;;;;;;7.10;6.40;;;18.10;99.90;;;;;;5033413;28;20175;-60
2023/08/27 03:42:30;;;;;;;5.53;5.13;;;18.10;99.90;;;;;;5033021;28;20178;-61
2023/08/27 03:44:57;;;;;;;5.37;4.90;;;18.10;99.90;;;;;;5032958;28;20978;-61
2023/08/27 03:47:23;;;;;;;5.73;5.33;;;18.10;99.90;;;;;;5032962;28;20517;-61
2023/08/27 03:49:49;;;;;;;5.63;5.23;;;18.10;99.90;;;;;;5032918;28;20417;-61
2023/08/27 03:52:14;;;;;;;6.67;5.33;;;18.10;99.90;;;;;;5032453;28;20175;-61
2023/08/27 03:54:40;;;;;;;7.40;6.87;;;18.10;99.90;;;;;;5033143;28;20617;-61
2023/08/27 03:57:06;;;;;;;6.00;5.50;;;18.00;99.90;;;;;;5032343;28;20202;-61
2023/08/27 03:59:32;;;;;;;6.20;5.47;;;18.10;99.90;;;;;;5033711;28;20170;-61
2023/08/27 04:01:57;;;;;;;5.60;5.20;;;18.00;99.90;;;;;;5032320;28;20551;-61
2023/08/27 04:04:23;;;;;;;6.50;6.13;;;18.00;99.90;;;;;;5032475;28;20748;-61
2023/08/27 04:06:49;;;;;;;5.87;5.43;;;18.00;99.90;;;;;;5033285;28;20183;-61
2023/08/27 04:09:15;;;;;;;6.00;5.60;;;18.00;99.90;;;;;;5031816;28;20181;-61
2023/08/27 04:11:41;;;;;;;6.40;6.00;;;17.90;99.90;;;;;;5032400;28;20171;-61
2023/08/27 04:14:06;;;;;;;6.57;6.17;;;17.90;99.90;;;;;;5032539;28;20289;-60
2023/08/27 04:16:32;;;;;;;6.53;5.93;;;17.90;99.90;;;;;;5032350;28;20778;-61
2023/08/27 04:18:58;;;;;;;6.23;5.83;;;17.90;99.90;;;;;;5032045;28;20197;-61
2023/08/27 04:21:23;;;;;;;6.10;5.67;;;17.90;99.90;;;;;;5030914;28;20189;-61
2023/08/27 04:23:49;;;;;;;6.60;6.00;;;18.00;99.90;;;;;;5032806;28;20178;-61
2023/08/27 04:26:15;;;;;;;6.70;6.30;;;18.00;99.90;;;;;;5029809;28;20520;-61
2023/08/27 04:28:41;;;;;;;6.57;5.97;;;17.90;99.90;;;;;;5031770;28;20532;-61
2023/08/27 04:31:06;;;;;;;6.13;5.73;;;17.90;99.90;;;;;;5032481;28;20166;-60
2023/08/27 04:33:32;;;;;;;6.30;5.90;;;17.90;99.90;;;;;;5030329;28;20167;-61
2023/08/27 04:35:58;;;;;;;6.30;5.80;;;17.90;99.90;;;;;;5032306;28;20639;-61
2023/08/27 04:38:24;;;;;;;6.33;6.03;;;17.90;99.90;;;;;;5031656;28;20174;-61
2023/08/27 04:40:51;;;;;;;6.87;6.27;;;17.90;99.90;;;;;;5031856;28;20170;-61
2023/08/27 04:43:17;;;;;;;6.90;6.50;;;17.90;99.90;;;;;;5030940;28;20245;-61
2023/08/27 04:45:43;;;;;;;7.67;7.00;;;17.90;99.90;;;;;;5032394;28;20811;-61
2023/08/27 04:48:09;;;;;;;6.70;6.30;;;17.90;99.90;;;;;;5031080;28;20776;-60
2023/08/27 04:50:35;;;;;;;6.57;6.07;;;17.90;99.90;;;;;;5032716;28;20166;-61
2023/08/27 04:53:01;;;;;;;8.10;7.60;;;17.80;99.90;;;;;;5032048;28;20413;-61
2023/08/27 04:55:27;;;;;;;7.43;6.93;;;17.80;99.90;;;;;;5031527;28;20608;-61
2023/08/27 04:57:52;;;;;;;8.53;7.73;;;17.80;99.90;;;;;;5031713;28;20302;-61
2023/08/27 05:00:21;;;;;;;8.13;7.53;;;17.80;99.90;;;;;;5031229;28;20978;-61
2023/08/27 05:02:48;;;;;;;7.23;6.70;;;17.90;99.90;;;;;;5032090;28;20208;-61
2023/08/27 05:05:15;;;;;;;7.20;6.80;;;17.90;99.90;;;;;;5030967;28;20490;-61
2023/08/27 05:07:42;;;;;;;8.53;7.73;;;17.90;99.90;;;;;;5031737;28;20425;-61
2023/08/27 05:10:08;;;;;;;7.60;7.10;;;17.90;99.90;;;;;;5031106;28;20417;-61
2023/08/27 05:12:34;;;;;;;7.70;6.80;;;17.90;99.90;;;;;;5032236;28;20401;-61
2023/08/27 05:14:59;;;;;;;7.30;6.80;;;17.90;99.90;;;;;;5032018;28;20878;-62
2023/08/27 05:17:25;;;;;;;7.10;6.60;;;17.90;99.90;;;;;;5031258;28;20194;-61
2023/08/27 05:19:51;;;;;;;7.50;6.90;;;18.00;99.90;;;;;;5031898;28;20531;-61
2023/08/27 05:22:17;;;;;;;6.77;6.37;;;17.90;99.90;;;;;;5030000;28;20537;-61
2023/08/27 05:24:43;;;;;;;7.77;7.27;;;17.90;99.90;;;;;;5031700;28;20174;-62
2023/08/27 05:27:08;;;;;;;6.93;6.53;;;17.90;99.90;;;;;;5031693;28;20641;-60
2023/08/27 05:29:34;;;;;;;8.33;7.53;;;17.80;99.90;;;;;;5031040;28;20417;-62
2023/08/27 05:32:00;;;;;;;11.67;10.57;;;17.70;99.90;;;;;;5030920;28;20181;-61
2023/08/27 05:34:26;;;;;;;8.20;7.70;;;17.70;99.90;;;;;;5031365;28;20790;-61
2023/08/27 05:36:52;;;;;;;6.83;6.43;;;17.80;99.90;;;;;;5031325;28;20669;-61
2023/08/27 05:39:18;;;;;;;7.23;6.80;;;17.90;99.90;;;;;;5031024;28;20423;-61
2023/08/27 05:41:44;;;;;;;7.67;7.07;;;17.90;99.90;;;;;;5032148;28;20394;-61
2023/08/27 05:44:10;;;;;;;6.87;6.37;;;18.00;99.90;;;;;;5030646;28;20428;-60
2023/08/27 05:46:36;;;;;;;7.13;6.60;;;18.10;99.90;;;;;;5031658;28;20186;-61
2023/08/27 05:49:01;;;;;;;6.97;6.23;;;18.20;99.90;;;;;;5032231;28;20175;-61
2023/08/27 05:51:27;;;;;;;6.90;6.43;;;18.20;99.90;;;;;;5030829;28;20204;-61
2023/08/27 05:53:53;;;;;;;7.90;7.30;;;18.30;99.90;;;;;;5033771;28;20529;-61
2023/08/27 05:56:19;;;;;;;6.70;6.30;;;18.40;99.90;;;;;;5034538;28;20174;-61
2023/08/27 05:58:44;;;;;;;6.00;5.50;;;18.40;99.90;;;;;;5035339;28;20429;-61
2023/08/27 06:01:10;;;;;;;5.93;5.60;;;18.50;99.90;;;;;;5034537;28;20232;-60
2023/08/27 06:03:36;;;;;;;6.23;5.83;;;18.50;99.90;;;;;;5035003;28;20213;-61
2023/08/27 06:06:02;;;;;;;6.30;5.87;;;18.60;99.90;;;;;;5034990;28;20432;-61
2023/08/27 06:08:28;;;;;;;5.90;5.50;;;18.60;99.90;;;;;;5035145;28;20170;-61
2023/08/27 06:10:54;;;;;;;6.47;5.90;;;18.60;99.90;;;;;;5034730;28;20774;-59
2023/08/27 06:13:20;;;;;;;6.40;6.00;;;18.70;99.90;;;;;;5033596;28;20184;-61
2023/08/27 06:15:46;;;;;;;7.30;6.80;;;18.70;99.90;;;;;;5034229;28;20409;-61
2023/08/27 06:18:12;;;;;;;6.40;6.00;;;18.70;99.90;;;;;;5034365;28;20221;-60
2023/08/27 06:20:38;;;;;;;5.80;5.43;;;18.70;99.90;;;;;;5034579;28;21245;-61
2023/08/27 06:23:04;;;;;;;6.03;5.63;;;18.70;99.90;;;;;;5035114;28;20178;-61
2023/08/27 06:25:34;;;;;;;6.00;5.70;;;18.70;99.90;;;;;;5033253;28;20273;-60
2023/08/27 06:28:03;;;;;;;5.43;5.10;;;18.70;99.90;;;;;;5026864;28;20770;-60
2023/08/27 06:30:28;;;;;;;5.10;4.80;;;18.70;99.90;;;;;;5031640;28;20455;-61
2023/08/27 06:32:54;;;;;;;5.40;5.20;;;18.70;99.90;;;;;;5034148;28;20428;-59
2023/08/27 06:35:20;;;;;;;5.40;5.10;;;18.70;99.90;;;;;;5032332;28;20182;-58
2023/08/27 06:37:46;;;;;;;5.20;4.80;;;18.70;99.90;;;;;;5034268;28;20203;-59
2023/08/27 06:40:13;;;;;;;5.50;5.20;;;18.70;99.90;;;;;;5033606;28;20241;-59
2023/08/27 06:42:40;;;;;;;5.40;5.00;;;18.70;99.90;;;;;;5030675;28;20228;-59
2023/08/27 06:45:07;;;;;;;5.10;4.90;;;18.60;99.90;;;;;;5040944;28;20424;-59
2023/08/27 06:47:33;;;;;;;4.60;4.40;;;18.60;99.90;;;;;;5028533;28;20428;-59
2023/08/27 06:49:59;;;;;;;5.47;5.17;;;18.60;99.90;;;;;;5030133;28;20406;-59
2023/08/27 06:52:25;;;;;;;5.67;5.17;;;18.50;99.90;;;;;;5030179;28;20429;-59
2023/08/27 06:54:51;;;;;;;5.43;5.10;;;18.50;99.90;;;;;;5031980;28;20189;-59
2023/08/27 06:57:17;;;;;;;4.83;4.63;;;18.50;99.90;;;;;;5020682;28;20483;-59
2023/08/27 06:59:42;;;;;;;4.80;4.50;;;18.60;99.90;;;;;;5035171;28;20182;-60
2023/08/27 07:02:08;;;;;;;4.30;4.10;;;18.70;99.90;;;;;;5034087;28;20178;-59
2023/08/27 07:04:34;;;;;;;4.33;4.13;;;18.70;99.90;;;;;;5031738;28;20576;-60
2023/08/27 07:07:00;;;;;;;4.90;4.60;;;18.80;99.90;;;;;;5031754;28;20202;-59
2023/08/27 07:09:25;;;;;;;4.20;4.00;;;18.80;99.90;;;;;;5033496;28;20178;-59
2023/08/27 07:11:52;;;;;;;4.00;3.80;;;18.90;99.90;;;;;;5032135;28;20175;-61
2023/08/27 07:14:18;;;;;;;4.60;4.30;;;18.80;99.90;;;;;;5031213;28;20178;-59
2023/08/27 07:16:43;;;;;;;4.10;3.90;;;18.80;99.90;;;;;;5031645;28;20459;-60
2023/08/27 07:19:09;;;;;;;5.30;5.00;;;18.80;99.90;;;;;;5030488;28;20939;-59
2023/08/27 07:21:35;;;;;;;4.90;4.70;;;18.80;99.90;;;;;;5030526;28;20178;-61
2023/08/27 07:24:01;;;;;;;5.30;5.00;;;18.80;99.90;;;;;;5031711;28;20661;-59
2023/08/27 07:26:26;;;;;;;4.80;4.60;;;18.80;99.90;;;;;;5032784;28;20180;-59
2023/08/27 07:28:52;;;;;;;5.40;5.10;;;18.90;99.90;;;;;;5032711;28;20179;-60
2023/08/27 07:31:18;;;;;;;4.87;4.60;;;18.90;99.90;;;;;;5032792;28;20196;-59
2023/08/27 07:33:43;;;;;;;5.43;5.23;;;18.90;99.90;;;;;;5033474;28;20182;-59
2023/08/27 07:36:09;;;;;;;5.47;5.10;;;19.00;99.90;;;;;;5032451;28;20261;-59
2023/08/27 07:38:42;;;;;;;5.80;5.30;;;19.00;99.90;;;;;;5032356;28;20265;-59
2023/08/27 07:41:09;;;;;;;5.60;5.20;;;19.10;99.90;;;;;;5033834;28;20165;-59
2023/08/27 07:43:34;;;;;;;5.50;5.20;;;19.10;99.90;;;;;;5032279;28;20517;-59
2023/08/27 07:46:00;;;;;;;5.60;5.10;;;19.20;99.90;;;;;;5033191;28;20940;-59
2023/08/27 07:48:27;;;;;;;5.27;4.97;;;19.20;99.90;;;;;;5032510;28;20166;-59
2023/08/27 07:50:53;;;;;;;4.40;4.20;;;19.30;99.90;;;;;;5032721;28;20179;-61
2023/08/27 07:53:19;;;;;;;5.60;5.10;;;19.40;99.90;;;;;;5030912;28;20428;-62
2023/08/27 07:55:45;;;;;;;5.07;4.87;;;19.60;99.90;;;;;;5033160;28;20174;-62
2023/08/27 07:58:11;;;;;;;5.70;5.40;;;19.70;99.90;;;;;;5032042;28;20202;-62
2023/08/27 08:00:36;;;;;;;5.60;5.37;;;20.00;99.90;;;;;;5029095;28;20187;-62
2023/08/27 08:03:02;;;;;;;6.00;5.70;;;20.10;99.90;;;;;;5031297;28;20256;-62
2023/08/27 08:05:28;;;;;;;5.40;5.20;;;20.20;99.90;;;;;;5024850;28;20225;-62
2023/08/27 08:07:54;;;;;;;5.73;5.50;;;20.40;99.90;;;;;;5032144;28;20433;-62
2023/08/27 08:10:23;;;;;;;108.27;83.17;;;20.50;99.90;;;;;;5032040;28;20412;-62
2023/08/27 08:12:50;;;;;;;578.30;451.03;;;20.70;99.90;;;;;;5026498;28;21046;-63
2023/08/27 08:15:16;;;;;;;28.00;25.20;;;20.80;99.90;;;;;;5030200;28;20449;-67
2023/08/27 08:17:43;;;;;;;24.87;22.47;;;20.90;99.90;;;;;;5032437;28;20456;-62
2023/08/27 08:20:10;;;;;;;56.03;46.10;;;21.00;99.90;;;;;;5032301;28;20449;-62
2023/08/27 08:22:36;;;;;;;176.30;156.90;;;21.20;99.90;;;;;;5030197;28;20413;-62
2023/08/27 08:25:02;;;;;;;9.53;8.57;;;21.30;99.90;;;;;;5031444;28;20424;-62
2023/08/27 08:27:28;;;;;;;5.40;5.10;;;21.40;99.90;;;;;;5032455;28;20197;-62
2023/08/27 08:29:54;;;;;;;5.37;4.97;;;21.30;99.90;;;;;;5030250;28;20425;-62
2023/08/27 08:32:20;;;;;;;5.70;5.30;;;21.30;99.90;;;;;;5029382;28;20177;-62
2023/08/27 08:34:46;;;;;;;5.73;5.43;;;21.30;99.90;;;;;;5032159;28;20463;-62
2023/08/27 08:37:11;;;;;;;5.77;5.37;;;21.40;99.90;;;;;;5030144;28;20453;-62
2023/08/27 08:39:37;;;;;;;4.73;4.43;;;21.40;99.90;;;;;;5031313;28;20649;-62
2023/08/27 08:42:23;;;;;;;5.27;5.07;;;21.30;99.90;;;;;;5030572;28;20178;-62
2023/08/27 08:45:13;;;;;;;6.07;5.47;;;21.40;99.90;;;;;;5031385;28;20650;-61
2023/08/27 08:47:39;;;;;;;100.50;88.43;;;21.40;99.90;;;;;;5031424;28;20855;-61
2023/08/27 08:50:08;;;;;;;42.67;38.20;;;21.40;99.90;;;;;;5030860;28;20509;-60
2023/08/27 08:52:42;;;;;;;6.40;6.00;;;21.50;99.90;;;;;;5028553;28;20171;-61
2023/08/27 08:55:10;;;;;;;6.40;5.80;;;21.50;99.90;;;;;;5030809;28;21079;-61
2023/08/27 08:58:09;;;;;;;6.30;5.90;;;21.50;99.90;;;;;;5030745;28;20456;-61
2023/08/27 09:00:35;;;;;;;5.37;5.07;;;21.40;99.90;;;;;;5014902;28;20437;-61
2023/08/27 09:03:03;;;;;;;6.23;5.83;;;21.40;99.90;;;;;;5027861;28;20417;-60
2023/08/27 09:05:31;;;;;;;5.43;5.13;;;21.40;99.90;;;;;;5029954;28;20456;-60
2023/08/27 09:07:57;;;;;;;5.90;5.50;;;21.30;99.90;;;;;;5030078;28;20444;-59
2023/08/27 09:10:24;;;;;;;5.43;5.13;;;21.20;99.90;;;;;;5027054;28;20417;-59
2023/08/27 09:12:55;;;;;;;5.70;5.30;;;21.20;99.90;;;;;;5032102;28;20401;-60
2023/08/27 09:15:21;;;;;;;5.33;5.03;;;21.30;99.90;;;;;;5027831;28;20907;-59
2023/08/27 09:17:48;;;;;;;5.80;5.40;;;21.40;99.90;;;;;;5031098;28;20499;-60
2023/08/27 09:20:15;;;;;;;6.90;6.30;;;21.20;99.90;;;;;;5031756;28;20413;-61
2023/08/27 09:22:41;;;;;;;6.77;6.17;;;21.30;99.90;;;;;;5031143;28;20422;-59
2023/08/27 09:25:09;;;;;;;6.43;5.90;;;21.40;99.90;;;;;;5031311;28;20889;-59
2023/08/27 09:27:35;;;;;;;5.60;5.20;;;21.50;99.90;;;;;;5026198;28;20524;-60
2023/08/27 09:30:02;;;;;;;5.27;4.97;;;21.60;99.90;;;;;;5032383;28;20770;-61
2023/08/27 09:32:29;;;;;;;4.30;4.00;;;21.60;99.90;;;;;;5031621;28;20425;-61
2023/08/27 09:34:59;;;;;;;5.50;5.20;;;21.70;99.90;;;;;;5032209;28;20960;-61
2023/08/27 09:37:29;;;;;;;4.60;4.30;;;21.70;99.90;;;;;;5031794;28;20822;-60
2023/08/27 09:39:55;;;;;;;4.80;4.50;;;21.80;99.90;;;;;;5031107;28;20444;-61
2023/08/27 09:42:22;;;;;;;5.50;5.10;;;21.80;99.90;;;;;;5030020;28;20417;-61
2023/08/27 09:44:54;;;;;;;6.93;6.40;;;21.90;99.90;;;;;;5029861;28;20467;-61
2023/08/27 09:47:36;;;;;;;6.40;5.93;;;22.00;99.90;;;;;;5028346;28;20432;-61
2023/08/27 09:50:29;;;;;;;6.80;6.20;;;22.00;99.90;;;;;;5024783;28;20483;-61
2023/08/27 09:53:10;;;;;;;6.50;6.10;;;22.00;99.90;;;;;;5018954;28;20811;-60
2023/08/27 09:55:37;;;;;;;5.60;5.20;;;22.00;99.90;;;;;;5031767;28;20823;-61
2023/08/27 09:58:06;;;;;;;5.50;4.90;;;22.10;99.90;;;;;;5033067;28;20463;-60
2023/08/27 10:00:33;;;;;;;4.83;4.63;;;22.10;99.90;;;;;;5034797;28;20828;-61
2023/08/27 10:02:59;;;;;;;5.07;4.77;;;22.10;99.90;;;;;;5032011;28;20418;-61
2023/08/27 10:05:31;;;;;;;7.93;5.20;;;22.10;99.90;;;;;;5028479;28;20993;-60
2023/08/27 10:08:05;;;;;;;4.10;3.90;;;22.00;99.90;;;;;;5028462;28;20456;-61
2023/08/27 10:10:36;;;;;;;3.33;3.23;;;22.10;99.90;;;;;;5034418;28;20420;-61
2023/08/27 10:13:03;;;;;;;3.70;3.50;;;22.10;99.90;;;;;;5035385;28;20736;-61
2023/08/27 10:15:30;;;;;;;3.87;3.67;;;22.20;99.90;;;;;;5023870;28;20434;-61
2023/08/27 10:17:56;;;;;;;4.13;3.80;;;22.30;99.90;;;;;;5032572;28;20489;-62
2023/08/27 10:20:22;;;;;;;4.20;3.90;;;22.40;99.90;;;;;;5030321;28;20413;-61
2023/08/27 10:22:49;;;;;;;3.97;3.77;;;22.60;99.90;;;;;;5030474;28;20417;-61
2023/08/27 10:25:17;;;;;;;3.47;3.30;;;22.70;99.90;;;;;;5029882;28;20523;-61
2023/08/27 10:27:46;;;;;;;3.63;3.53;;;22.70;99.90;;;;;;5030990;28;20429;-61
2023/08/27 10:30:13;;;;;;;3.50;3.30;;;22.60;99.90;;;;;;5028453;28;20797;-61
2023/08/27 10:32:39;;;;;;;74.10;62.03;;;22.50;99.90;;;;;;5030502;28;20437;-61
2023/08/27 10:35:05;;;;;;;6.40;5.90;;;22.60;99.90;;;;;;5029632;28;20425;-61
2023/08/27 10:37:33;;;;;;;4.70;4.23;;;22.40;99.90;;;;;;5032232;28;20220;-62
2023/08/27 10:40:04;;;;;;;5.30;5.00;;;22.30;99.90;;;;;;5031490;28;20421;-61
2023/08/27 10:42:33;;;;;;;6.40;5.90;;;22.30;99.90;;;;;;5033014;28;20520;-61
2023/08/27 10:45:19;;;;;;;4.43;4.23;;;22.30;99.90;;;;;;5031145;28;20417;-61
2023/08/27 10:48:16;;;;;;;6.90;6.30;;;22.60;99.90;;;;;;5029746;28;20803;-62
2023/08/27 10:50:50;;;;;;;4.53;4.17;;;22.80;99.90;;;;;;5031504;28;20409;-62
2023/08/27 10:53:17;;;;;;;4.73;4.43;;;22.90;99.90;;;;;;5031641;28;20547;-62
2023/08/27 10:55:48;;;;;;;4.70;4.40;;;23.00;99.90;;;;;;5031170;28;20417;-62
2023/08/27 10:58:21;;;;;;;4.47;4.27;;;23.00;99.90;;;;;;5034106;28;20931;-62
2023/08/27 11:01:12;;;;;;;4.60;4.30;;;23.10;99.90;;;;;;5031104;28;20432;-61
2023/08/27 11:03:55;;;;;;;5.80;5.30;;;23.10;99.90;;;;;;5030213;28;20448;-61
2023/08/27 11:06:40;;;;;;;4.50;4.20;;;23.10;99.90;;;;;;5029433;28;20430;-62
2023/08/27 11:09:11;;;;;;;4.93;4.00;;;23.20;99.90;;;;;;5033190;28;20877;-62
2023/08/27 11:11:51;;;;;;;4.20;3.90;;;23.30;99.90;;;;;;5030314;28;20417;-62
2023/08/27 11:14:19;;;;;;;3.90;3.70;;;23.40;99.90;;;;;;5027380;28;20460;-63
2023/08/27 11:16:57;;;;;;;3.87;3.57;;;23.50;99.90;;;;;;5034145;28;20453;-61
2023/08/27 11:19:28;;;;;;;4.00;3.70;;;23.40;99.90;;;;;;5027950;28;20429;-61
2023/08/27 11:22:04;;;;;;;3.80;3.60;;;23.40;99.90;;;;;;5030053;28;20944;-61
2023/08/27 11:24:30;;;;;;;3.77;3.57;;;23.20;99.90;;;;;;5031394;28;20504;-61
2023/08/27 11:27:00;;;;;;;17.40;15.10;;;23.30;99.90;;;;;;5033522;28;20464;-61
2023/08/27 11:29:27;;;;;;;99.30;88.97;;;23.50;99.90;;;;;;5031161;28;20913;-61
2023/08/27 11:31:53;;;;;;;6.87;6.30;;;23.60;99.90;;;;;;5032428;28;20425;-61
2023/08/27 11:34:19;;;;;;;4.70;4.30;;;23.70;99.10;;;;;;5031649;28;20559;-61
2023/08/27 11:36:54;;;;;;;4.33;4.13;;;23.80;99.00;;;;;;5031822;28;20536;-61
2023/08/27 11:39:20;;;;;;;5.20;4.90;;;23.70;95.80;;;;;;5029101;28;20186;-61
2023/08/27 11:41:46;;;;;;;5.67;5.30;;;23.80;96.90;;;;;;5030574;28;20452;-61
2023/08/27 11:44:12;;;;;;;4.63;4.33;;;23.80;97.00;;;;;;5032254;28;20432;-61
2023/08/27 11:46:39;;;;;;;5.47;5.17;;;23.90;97.60;;;;;;5032159;28;20417;-61
2023/08/27 11:49:06;;;;;;;5.20;4.90;;;23.90;96.30;;;;;;5029094;28;20424;-61
2023/08/27 11:51:34;;;;;;;4.57;4.27;;;23.80;97.20;;;;;;5030322;28;20409;-61
2023/08/27 11:54:00;;;;;;;4.70;4.30;;;23.80;98.10;;;;;;5033501;28;20401;-61
2023/08/27 11:56:27;;;;;;;4.03;3.83;;;23.80;99.90;;;;;;5032174;28;20500;-61
2023/08/27 11:58:55;;;;;;;4.37;4.07;;;23.80;97.70;;;;;;5030108;28;20905;-62
2023/08/27 12:01:21;;;;;;;3.93;3.70;;;23.80;97.40;;;;;;5033297;28;20435;-66
2023/08/27 12:03:51;;;;;;;4.43;4.13;;;23.70;99.90;;;;;;5029724;28;20456;-63
2023/08/27 12:06:30;;;;;;;4.30;4.00;;;23.60;99.90;;;;;;5027283;28;20417;-63
2023/08/27 12:08:57;;;;;;;4.80;4.50;;;23.60;99.90;;;;;;5027279;28;20422;-63
2023/08/27 12:11:27;;;;;;;5.20;4.90;;;23.60;99.90;;;;;;5033344;28;20437;-64
2023/08/27 12:14:00;;;;;;;4.23;3.93;;;23.60;99.90;;;;;;5026966;28;20478;-64
2023/08/27 12:16:34;;;;;;;5.67;5.20;;;23.60;99.90;;;;;;5028670;28;20828;-63
2023/08/27 12:19:08;;;;;;;3.93;3.73;;;23.80;99.90;;;;;;5030990;28;20416;-64
2023/08/27 12:21:46;;;;;;;4.93;4.63;;;23.90;99.90;;;;;;5029022;28;20408;-64
2023/08/27 12:24:29;;;;;;;4.87;4.63;;;24.10;99.90;;;;;;5029429;28;20502;-64
2023/08/27 12:27:03;;;;;;;5.50;5.20;;;24.30;99.90;;;;;;5029904;28;20449;-64
2023/08/27 12:29:31;;;;;;;71.63;60.50;;;24.30;96.70;;;;;;5032531;28;20474;-64
2023/08/27 12:31:58;;;;;;;106.17;94.73;;;24.20;96.30;;;;;;5028928;28;20444;-63
2023/08/27 12:34:52;;;;;;;10.43;9.67;;;24.00;96.20;;;;;;5032201;28;20413;-63
2023/08/27 12:37:22;;;;;;;5.27;4.80;;;23.80;97.90;;;;;;5014432;28;20485;-63
2023/08/27 12:39:50;;;;;;;23.90;13.97;;;23.90;98.10;;;;;;5033001;28;20461;-62
2023/08/27 12:42:16;;;;;;;4.93;4.67;;;23.90;98.30;;;;;;5030804;28;20413;-62
2023/08/27 12:44:43;;;;;;;4.27;3.90;;;23.90;96.50;;;;;;5031737;28;20483;-62
2023/08/27 12:47:09;;;;;;;6.70;6.17;;;23.80;95.50;;;;;;5034022;28;20413;-65
2023/08/27 12:49:36;;;;;;;7.77;7.30;;;23.80;96.70;;;;;;5032826;28;20417;-63